sensor_id;sensor_type;location;lat;lon;timestamp;P1;durP1;ratioP1;P2;durP2;ratioP2
32329;SDS011;18807;52.434;13.238;2023-05-16T00:12:28;10.43;;;8.40;;
32329;SDS011;18807;52.434;13.238;2023-05-16T00:20:04;10.05;;;8.73;;
32329;SDS011;18807;52.434;13.238;2023-05-16T00:27:42;12.18;;;10.57;;
32329;SDS011;18807;52.434;13.238;2023-05-16T00:35:16;13.93;;;10.73;;
32329;SDS011;18807;52.434;13.238;2023-05-16T00:42:51;19.02;;;13.10;;
32329;SDS011;18807;52.434;13.238;2023-05-16T00:50:26;18.48;;;12.85;;
32329;SDS011;18807;52.434;13.238;2023-05-16T00:58:01;20.77;;;14.17;;
32329;SDS011;18807;52.434;13.238;2023-05-16T01:05:36;17.67;;;12.55;;
32329;SDS011;18807;52.434;13.238;2023-05-16T01:13:13;18.60;;;13.43;;
32329;SDS011;18807;52.434;13.238;2023-05-16T01:20:55;22.52;;;12.85;;
32329;SDS011;18807;52.434;13.238;2023-05-16T01:28:36;18.13;;;14.13;;
32329;SDS011;18807;52.434;13.238;2023-05-16T01:36:13;19.13;;;12.85;;
32329;SDS011;18807;52.434;13.238;2023-05-16T01:43:56;21.45;;;13.48;;
32329;SDS011;18807;52.434;13.238;2023-05-16T01:51:33;13.80;;;11.38;;
32329;SDS011;18807;52.434;13.238;2023-05-16T01:59:14;20.15;;;11.45;;
32329;SDS011;18807;52.434;13.238;2023-05-16T02:06:48;16.63;;;11.35;;
32329;SDS011;18807;52.434;13.238;2023-05-16T02:14:24;20.77;;;12.07;;
32329;SDS011;18807;52.434;13.238;2023-05-16T02:21:58;16.20;;;11.82;;
32329;SDS011;18807;52.434;13.238;2023-05-16T02:29:33;20.13;;;12.35;;
32329;SDS011;18807;52.434;13.238;2023-05-16T02:37:07;17.23;;;11.20;;
32329;SDS011;18807;52.434;13.238;2023-05-16T02:44:45;15.82;;;11.93;;
32329;SDS011;18807;52.434;13.238;2023-05-16T02:52:20;20.00;;;13.10;;
32329;SDS011;18807;52.434;13.238;2023-05-16T02:59:55;20.17;;;13.23;;
32329;SDS011;18807;52.434;13.238;2023-05-16T03:07:29;22.73;;;14.20;;
32329;SDS011;18807;52.434;13.238;2023-05-16T03:15:05;22.07;;;14.90;;
32329;SDS011;18807;52.434;13.238;2023-05-16T03:22:40;19.13;;;13.40;;
32329;SDS011;18807;52.434;13.238;2023-05-16T03:30:17;20.73;;;14.63;;
32329;SDS011;18807;52.434;13.238;2023-05-16T03:37:52;20.40;;;14.65;;
32329;SDS011;18807;52.434;13.238;2023-05-16T03:45:27;17.23;;;12.97;;
32329;SDS011;18807;52.434;13.238;2023-05-16T03:53:02;24.23;;;14.75;;
32329;SDS011;18807;52.434;13.238;2023-05-16T04:00:37;25.55;;;15.75;;
32329;SDS011;18807;52.434;13.238;2023-05-16T04:08:11;25.42;;;16.23;;
32329;SDS011;18807;52.434;13.238;2023-05-16T04:15:46;26.92;;;14.88;;
32329;SDS011;18807;52.434;13.238;2023-05-16T04:23:20;26.70;;;16.65;;
32329;SDS011;18807;52.434;13.238;2023-05-16T04:30:55;24.48;;;15.43;;
32329;SDS011;18807;52.434;13.238;2023-05-16T04:38:29;23.77;;;14.60;;
32329;SDS011;18807;52.434;13.238;2023-05-16T04:46:04;23.17;;;15.23;;
32329;SDS011;18807;52.434;13.238;2023-05-16T04:53:38;25.35;;;15.52;;
32329;SDS011;18807;52.434;13.238;2023-05-16T05:01:13;22.42;;;15.60;;
32329;SDS011;18807;52.434;13.238;2023-05-16T05:08:48;22.13;;;14.25;;
32329;SDS011;18807;52.434;13.238;2023-05-16T05:16:23;25.00;;;14.73;;
32329;SDS011;18807;52.434;13.238;2023-05-16T05:23:57;21.65;;;14.55;;
32329;SDS011;18807;52.434;13.238;2023-05-16T05:31:33;30.15;;;16.33;;
32329;SDS011;18807;52.434;13.238;2023-05-16T05:39:25;23.58;;;14.80;;
32329;SDS011;18807;52.434;13.238;2023-05-16T05:47:18;25.33;;;15.00;;
32329;SDS011;18807;52.434;13.238;2023-05-16T05:54:53;22.27;;;14.90;;
32329;SDS011;18807;52.434;13.238;2023-05-16T06:02:28;21.27;;;13.77;;
32329;SDS011;18807;52.434;13.238;2023-05-16T06:10:03;17.70;;;12.25;;
32329;SDS011;18807;52.434;13.238;2023-05-16T06:17:39;15.68;;;11.30;;
32329;SDS011;18807;52.434;13.238;2023-05-16T06:25:13;12.95;;;10.23;;
32329;SDS011;18807;52.434;13.238;2023-05-16T06:33:06;16.02;;;10.15;;
32329;SDS011;18807;52.434;13.238;2023-05-16T06:40:40;16.42;;;9.05;;
32329;SDS011;18807;52.434;13.238;2023-05-16T06:48:16;11.07;;;7.20;;
32329;SDS011;18807;52.434;13.238;2023-05-16T06:55:51;9.20;;;5.97;;
32329;SDS011;18807;52.434;13.238;2023-05-16T07:03:27;8.20;;;5.60;;
32329;SDS011;18807;52.434;13.238;2023-05-16T07:11:02;8.82;;;5.57;;
32329;SDS011;18807;52.434;13.238;2023-05-16T07:18:37;7.28;;;4.63;;
32329;SDS011;18807;52.434;13.238;2023-05-16T07:26:11;12.00;;;5.00;;
32329;SDS011;18807;52.434;13.238;2023-05-16T07:33:46;6.00;;;4.70;;
32329;SDS011;18807;52.434;13.238;2023-05-16T07:41:20;6.60;;;4.90;;
32329;SDS011;18807;52.434;13.238;2023-05-16T07:48:58;9.95;;;4.40;;
32329;SDS011;18807;52.434;13.238;2023-05-16T07:56:31;9.98;;;4.18;;
32329;SDS011;18807;52.434;13.238;2023-05-16T08:04:07;9.38;;;3.55;;
32329;SDS011;18807;52.434;13.238;2023-05-16T08:11:41;5.93;;;3.65;;
32329;SDS011;18807;52.434;13.238;2023-05-16T08:19:18;8.23;;;4.25;;
32329;SDS011;18807;52.434;13.238;2023-05-16T08:26:52;8.80;;;3.72;;
32329;SDS011;18807;52.434;13.238;2023-05-16T08:34:29;6.47;;;3.20;;
32329;SDS011;18807;52.434;13.238;2023-05-16T08:42:03;6.97;;;3.15;;
32329;SDS011;18807;52.434;13.238;2023-05-16T08:49:39;5.13;;;3.25;;
32329;SDS011;18807;52.434;13.238;2023-05-16T08:57:13;7.45;;;3.13;;
32329;SDS011;18807;52.434;13.238;2023-05-16T09:04:50;8.65;;;4.30;;
32329;SDS011;18807;52.434;13.238;2023-05-16T09:12:25;4.40;;;2.97;;
32329;SDS011;18807;52.434;13.238;2023-05-16T09:20:01;4.68;;;2.97;;
32329;SDS011;18807;52.434;13.238;2023-05-16T09:27:41;5.68;;;3.38;;
32329;SDS011;18807;52.434;13.238;2023-05-16T09:43:43;7.18;;;3.35;;
32329;SDS011;18807;52.434;13.238;2023-05-16T09:51:17;9.00;;;2.63;;
32329;SDS011;18807;52.434;13.238;2023-05-16T09:58:55;6.38;;;3.03;;
32329;SDS011;18807;52.434;13.238;2023-05-16T10:06:29;8.38;;;2.65;;
32329;SDS011;18807;52.434;13.238;2023-05-16T10:14:05;7.13;;;2.97;;
32329;SDS011;18807;52.434;13.238;2023-05-16T10:21:40;7.05;;;2.75;;
32329;SDS011;18807;52.434;13.238;2023-05-16T10:29:20;10.68;;;4.68;;
32329;SDS011;18807;52.434;13.238;2023-05-16T10:36:55;5.20;;;2.13;;
32329;SDS011;18807;52.434;13.238;2023-05-16T10:44:32;11.67;;;2.57;;
32329;SDS011;18807;52.434;13.238;2023-05-16T10:52:07;5.07;;;2.10;;
32329;SDS011;18807;52.434;13.238;2023-05-16T10:59:43;6.80;;;2.53;;
32329;SDS011;18807;52.434;13.238;2023-05-16T11:07:19;10.90;;;2.67;;
32329;SDS011;18807;52.434;13.238;2023-05-16T11:14:56;10.35;;;2.25;;
32329;SDS011;18807;52.434;13.238;2023-05-16T11:22:31;7.38;;;2.13;;
32329;SDS011;18807;52.434;13.238;2023-05-16T11:30:11;6.65;;;2.20;;
32329;SDS011;18807;52.434;13.238;2023-05-16T11:37:47;7.28;;;1.95;;
32329;SDS011;18807;52.434;13.238;2023-05-16T11:45:25;5.82;;;2.15;;
32329;SDS011;18807;52.434;13.238;2023-05-16T11:52:59;6.45;;;2.13;;
32329;SDS011;18807;52.434;13.238;2023-05-16T12:00:35;9.82;;;2.88;;
32329;SDS011;18807;52.434;13.238;2023-05-16T12:17:03;9.77;;;2.92;;
32329;SDS011;18807;52.434;13.238;2023-05-16T12:24:39;8.50;;;2.50;;
32329;SDS011;18807;52.434;13.238;2023-05-16T12:32:14;10.52;;;3.83;;
32329;SDS011;18807;52.434;13.238;2023-05-16T12:39:50;6.65;;;2.10;;
32329;SDS011;18807;52.434;13.238;2023-05-16T12:47:34;6.55;;;1.60;;
32329;SDS011;18807;52.434;13.238;2023-05-16T12:55:09;7.17;;;1.97;;
32329;SDS011;18807;52.434;13.238;2023-05-16T13:02:45;5.43;;;1.45;;
32329;SDS011;18807;52.434;13.238;2023-05-16T13:10:20;8.25;;;1.40;;
32329;SDS011;18807;52.434;13.238;2023-05-16T13:17:55;4.50;;;1.63;;
32329;SDS011;18807;52.434;13.238;2023-05-16T13:25:29;4.90;;;1.48;;
32329;SDS011;18807;52.434;13.238;2023-05-16T13:33:05;7.27;;;1.60;;
32329;SDS011;18807;52.434;13.238;2023-05-16T13:40:39;8.63;;;2.10;;
32329;SDS011;18807;52.434;13.238;2023-05-16T13:48:17;6.80;;;1.67;;
32329;SDS011;18807;52.434;13.238;2023-05-16T13:55:51;7.10;;;1.75;;
32329;SDS011;18807;52.434;13.238;2023-05-16T14:03:26;4.60;;;1.50;;
32329;SDS011;18807;52.434;13.238;2023-05-16T14:11:00;4.13;;;1.67;;
32329;SDS011;18807;52.434;13.238;2023-05-16T14:18:36;5.22;;;1.52;;
32329;SDS011;18807;52.434;13.238;2023-05-16T14:26:09;7.05;;;1.63;;
32329;SDS011;18807;52.434;13.238;2023-05-16T14:33:44;4.68;;;0.90;;
32329;SDS011;18807;52.434;13.238;2023-05-16T14:41:18;4.47;;;0.65;;
32329;SDS011;18807;52.434;13.238;2023-05-16T14:48:53;5.53;;;1.30;;
32329;SDS011;18807;52.434;13.238;2023-05-16T15:12:56;11.20;;;1.42;;
32329;SDS011;18807;52.434;13.238;2023-05-16T15:28:05;7.07;;;1.10;;
32329;SDS011;18807;52.434;13.238;2023-05-16T15:35:39;2.00;;;0.75;;
32329;SDS011;18807;52.434;13.238;2023-05-16T15:43:16;4.07;;;0.93;;
32329;SDS011;18807;52.434;13.238;2023-05-16T15:51:08;3.95;;;0.63;;
32329;SDS011;18807;52.434;13.238;2023-05-16T15:58:45;4.03;;;0.70;;
32329;SDS011;18807;52.434;13.238;2023-05-16T16:06:21;4.82;;;0.70;;
32329;SDS011;18807;52.434;13.238;2023-05-16T16:13:56;3.00;;;0.80;;
32329;SDS011;18807;52.434;13.238;2023-05-16T16:21:30;4.13;;;0.82;;
32329;SDS011;18807;52.434;13.238;2023-05-16T16:29:06;2.70;;;0.80;;
32329;SDS011;18807;52.434;13.238;2023-05-16T16:44:15;6.35;;;0.90;;
32329;SDS011;18807;52.434;13.238;2023-05-16T16:51:49;2.55;;;0.65;;
32329;SDS011;18807;52.434;13.238;2023-05-16T16:59:24;2.70;;;0.75;;
32329;SDS011;18807;52.434;13.238;2023-05-16T17:06:58;4.38;;;0.90;;
32329;SDS011;18807;52.434;13.238;2023-05-16T17:14:33;2.85;;;0.70;;
32329;SDS011;18807;52.434;13.238;2023-05-16T17:22:07;3.78;;;0.50;;
32329;SDS011;18807;52.434;13.238;2023-05-16T17:29:43;2.15;;;0.60;;
32329;SDS011;18807;52.434;13.238;2023-05-16T17:37:17;4.68;;;0.82;;
32329;SDS011;18807;52.434;13.238;2023-05-16T17:44:54;4.25;;;0.40;;
32329;SDS011;18807;52.434;13.238;2023-05-16T17:52:45;5.97;;;0.88;;
32329;SDS011;18807;52.434;13.238;2023-05-16T18:00:36;4.28;;;0.90;;
32329;SDS011;18807;52.434;13.238;2023-05-16T18:08:11;4.40;;;0.68;;
32329;SDS011;18807;52.434;13.238;2023-05-16T18:15:46;4.75;;;0.90;;
32329;SDS011;18807;52.434;13.238;2023-05-16T18:23:20;2.47;;;0.60;;
32329;SDS011;18807;52.434;13.238;2023-05-16T18:38:31;5.90;;;0.80;;
32329;SDS011;18807;52.434;13.238;2023-05-16T18:46:06;3.30;;;0.80;;
32329;SDS011;18807;52.434;13.238;2023-05-16T18:53:40;7.65;;;1.73;;
32329;SDS011;18807;52.434;13.238;2023-05-16T19:01:15;1.27;;;0.82;;
32329;SDS011;18807;52.434;13.238;2023-05-16T19:08:53;3.10;;;0.80;;
32329;SDS011;18807;52.434;13.238;2023-05-16T19:16:28;3.97;;;0.63;;
32329;SDS011;18807;52.434;13.238;2023-05-16T19:24:03;3.50;;;0.60;;
32329;SDS011;18807;52.434;13.238;2023-05-16T19:39:12;3.53;;;0.85;;
32329;SDS011;18807;52.434;13.238;2023-05-16T19:46:48;4.80;;;1.02;;
32329;SDS011;18807;52.434;13.238;2023-05-16T19:54:22;4.03;;;0.80;;
32329;SDS011;18807;52.434;13.238;2023-05-16T20:02:04;4.00;;;0.77;;
32329;SDS011;18807;52.434;13.238;2023-05-16T20:09:37;4.10;;;0.35;;
32329;SDS011;18807;52.434;13.238;2023-05-16T20:17:13;1.65;;;1.17;;
32329;SDS011;18807;52.434;13.238;2023-05-16T20:24:47;1.98;;;0.88;;
32329;SDS011;18807;52.434;13.238;2023-05-16T20:32:22;2.08;;;0.60;;
32329;SDS011;18807;52.434;13.238;2023-05-16T20:39:56;5.65;;;0.73;;
32329;SDS011;18807;52.434;13.238;2023-05-16T20:47:31;4.00;;;0.60;;
32329;SDS011;18807;52.434;13.238;2023-05-16T20:55:06;1.92;;;0.60;;
32329;SDS011;18807;52.434;13.238;2023-05-16T21:02:41;2.73;;;0.80;;
32329;SDS011;18807;52.434;13.238;2023-05-16T21:10:15;1.73;;;0.60;;
32329;SDS011;18807;52.434;13.238;2023-05-16T21:17:51;2.70;;;0.47;;
32329;SDS011;18807;52.434;13.238;2023-05-16T21:25:25;3.95;;;0.55;;
32329;SDS011;18807;52.434;13.238;2023-05-16T21:40:35;3.07;;;0.60;;
32329;SDS011;18807;52.434;13.238;2023-05-16T21:48:11;2.00;;;0.60;;
32329;SDS011;18807;52.434;13.238;2023-05-16T21:55:45;2.80;;;0.75;;
32329;SDS011;18807;52.434;13.238;2023-05-16T22:03:20;3.75;;;0.88;;
32329;SDS011;18807;52.434;13.238;2023-05-16T22:10:55;3.63;;;0.80;;
32329;SDS011;18807;52.434;13.238;2023-05-16T22:18:30;2.70;;;0.45;;
32329;SDS011;18807;52.434;13.238;2023-05-16T22:26:05;1.88;;;0.50;;
32329;SDS011;18807;52.434;13.238;2023-05-16T22:33:40;2.95;;;0.73;;
32329;SDS011;18807;52.434;13.238;2023-05-16T22:41:15;2.00;;;0.63;;
32329;SDS011;18807;52.434;13.238;2023-05-16T22:48:50;1.83;;;0.60;;
32329;SDS011;18807;52.434;13.238;2023-05-16T22:56:24;2.85;;;0.70;;
32329;SDS011;18807;52.434;13.238;2023-05-16T23:03:59;2.17;;;0.57;;
32329;SDS011;18807;52.434;13.238;2023-05-16T23:11:34;1.88;;;0.63;;
32329;SDS011;18807;52.434;13.238;2023-05-16T23:19:09;2.83;;;0.70;;
32329;SDS011;18807;52.434;13.238;2023-05-16T23:26:43;2.90;;;0.90;;
32329;SDS011;18807;52.434;13.238;2023-05-16T23:34:18;3.00;;;0.80;;
32329;SDS011;18807;52.434;13.238;2023-05-16T23:41:52;2.22;;;0.88;;
32329;SDS011;18807;52.434;13.238;2023-05-16T23:49:27;4.05;;;1.15;;
32329;SDS011;18807;52.434;13.238;2023-05-16T23:57:01;4.10;;;1.42;;
